createdAt,value
2023-05-04T00:00:26.967Z,58.84
2023-05-04T00:03:14.069Z,59.10
2023-05-04T00:05:44.352Z,59.24
2023-05-04T00:08:19.186Z,59.25
2023-05-04T00:10:47.982Z,59.29
2023-05-04T00:13:17.239Z,59.52
2023-05-04T00:15:46.920Z,59.64
2023-05-04T00:18:27.150Z,59.64
2023-05-04T00:21:02.405Z,59.63
2023-05-04T00:23:38.655Z,59.71
2023-05-04T00:26:08.465Z,59.90
2023-05-04T00:28:38.078Z,59.88
2023-05-04T00:31:09.258Z,59.99
2023-05-04T00:34:01.646Z,59.86
2023-05-04T00:36:31.020Z,59.98
2023-05-04T00:39:04.043Z,60.19
2023-05-04T00:41:36.025Z,60.23
2023-05-04T00:44:06.449Z,60.37
2023-05-04T00:46:38.638Z,60.39
2023-05-04T00:49:10.153Z,60.46
2023-05-04T00:51:46.900Z,60.54
2023-05-04T00:54:19.763Z,60.44
2023-05-04T00:56:52.791Z,60.40
2023-05-04T00:59:25.676Z,60.45
2023-05-04T01:02:18.222Z,60.70
2023-05-04T01:04:55.807Z,60.95
2023-05-04T01:07:52.670Z,60.88
2023-05-04T01:10:55.453Z,60.89
2023-05-04T01:13:26.184Z,61.03
2023-05-04T01:15:58.962Z,61.19
2023-05-04T01:18:40.550Z,61.23
2023-05-04T01:21:14.364Z,61.20
2023-05-04T01:23:44.077Z,61.16
2023-05-04T01:26:27.634Z,61.28
2023-05-04T01:29:16.254Z,61.30
2023-05-04T01:31:49.662Z,61.30
2023-05-04T01:34:19.815Z,61.44
2023-05-04T01:36:49.582Z,61.40
2023-05-04T01:39:18.378Z,61.50
2023-05-04T01:41:47.347Z,61.78
2023-05-04T01:44:17.981Z,61.79
2023-05-04T01:46:53.638Z,62.00
2023-05-04T01:49:26.721Z,62.17
2023-05-04T01:51:58.694Z,62.21
2023-05-04T01:54:34.751Z,62.22
2023-05-04T01:57:07.838Z,62.33
2023-05-04T01:59:37.020Z,62.25
2023-05-04T02:02:06.985Z,62.48
2023-05-04T02:04:46.190Z,62.51
2023-05-04T02:07:25.838Z,62.56
2023-05-04T02:10:03.174Z,62.61
2023-05-04T02:12:33.235Z,62.71
2023-05-04T02:15:07.500Z,62.81
2023-05-04T02:17:39.880Z,62.77
2023-05-04T02:20:15.682Z,62.82
2023-05-04T02:23:01.254Z,62.87
2023-05-04T02:25:42.118Z,63.02
2023-05-04T02:28:14.276Z,63.01
2023-05-04T02:30:44.304Z,62.85
2023-05-04T02:33:16.874Z,62.95
2023-05-04T02:35:47.307Z,63.03
2023-05-04T02:38:28.672Z,63.12
2023-05-04T02:40:58.089Z,63.18
2023-05-04T02:43:27.796Z,63.10
2023-05-04T02:46:05.509Z,63.27
2023-05-04T02:48:35.002Z,63.36
2023-05-04T02:51:06.332Z,63.51
2023-05-04T02:53:41.266Z,63.55
2023-05-04T02:56:10.576Z,63.65
2023-05-04T02:58:39.350Z,63.61
2023-05-04T03:01:08.496Z,63.61
2023-05-04T03:03:37.848Z,63.68
2023-05-04T03:06:12.891Z,63.69
2023-05-04T03:08:42.200Z,63.84
2023-05-04T03:11:27.665Z,63.94
2023-05-04T03:14:13.891Z,64.20
2023-05-04T03:16:43.118Z,64.21
2023-05-04T03:19:12.060Z,64.29
2023-05-04T03:21:43.724Z,64.42
2023-05-04T03:24:13.538Z,64.57
2023-05-04T03:26:54.497Z,64.68
2023-05-04T03:29:33.213Z,64.61
2023-05-04T03:32:07.516Z,64.55
2023-05-04T03:34:37.545Z,64.70
2023-05-04T03:37:13.501Z,64.65
2023-05-04T03:39:45.465Z,64.63
2023-05-04T03:42:13.847Z,64.74
2023-05-04T03:44:47.152Z,64.75
2023-05-04T03:47:21.058Z,64.75
2023-05-04T03:49:55.260Z,65.04
2023-05-04T03:52:24.464Z,65.38
2023-05-04T03:54:53.557Z,65.61
2023-05-04T03:57:26.863Z,66.02
2023-05-04T04:00:01.794Z,65.99
2023-05-04T04:02:33.496Z,66.18
2023-05-04T04:05:03.679Z,65.96
2023-05-04T04:08:08.922Z,65.72
2023-05-04T04:10:41.167Z,65.50
2023-05-04T04:13:11.437Z,65.29
2023-05-04T04:15:44.761Z,64.43
2023-05-04T04:18:18.997Z,63.93
2023-05-04T04:20:50.754Z,63.55
2023-05-04T04:23:21.572Z,63.44
2023-05-04T04:25:53.657Z,63.09
2023-05-04T04:28:23.888Z,62.84
2023-05-04T04:30:59.778Z,62.56
2023-05-04T04:33:29.336Z,62.01
2023-05-04T04:35:58.429Z,61.51
2023-05-04T04:38:27.938Z,61.09
2023-05-04T04:40:57.754Z,60.50
2023-05-04T04:43:27.764Z,59.42
2023-05-04T04:45:57.057Z,58.61
2023-05-04T04:48:31.796Z,58.42
2023-05-04T04:51:01.298Z,58.85
2023-05-04T04:53:30.797Z,59.05
2023-05-04T04:56:04.713Z,59.21
2023-05-04T04:58:34.816Z,58.70
2023-05-04T05:01:05.191Z,57.70
2023-05-04T05:03:33.952Z,57.03
2023-05-04T05:06:04.350Z,56.18
2023-05-04T05:08:33.573Z,54.47
2023-05-04T05:11:05.618Z,54.84
2023-05-04T05:13:34.771Z,55.36
2023-05-04T05:16:06.296Z,54.73
2023-05-04T05:18:35.870Z,53.84
2023-05-04T05:21:05.400Z,51.91
2023-05-04T05:23:36.786Z,51.34
2023-05-04T05:26:05.720Z,51.71
2023-05-04T05:28:34.638Z,51.23
2023-05-04T05:31:24.570Z,50.21
2023-05-04T05:33:59.423Z,49.33
2023-05-04T05:36:31.699Z,48.23
2023-05-04T05:39:07.051Z,46.71
2023-05-04T05:41:56.075Z,45.72
2023-05-04T05:44:28.063Z,45.85
2023-05-04T05:47:02.208Z,46.89
2023-05-04T05:49:39.785Z,47.28
2023-05-04T05:52:21.801Z,46.07
2023-05-04T05:55:02.443Z,43.50
2023-05-04T05:57:51.329Z,42.31
2023-05-04T06:00:25.690Z,42.14
2023-05-04T06:03:08.164Z,40.87
2023-05-04T06:05:38.675Z,39.89
2023-05-04T06:08:13.363Z,38.85
2023-05-04T06:10:44.937Z,38.54
2023-05-04T06:13:19.842Z,37.70
2023-05-04T06:16:00.122Z,36.82
2023-05-04T06:18:34.082Z,36.32
2023-05-04T06:21:06.280Z,34.76
2023-05-04T06:23:47.042Z,33.86
2023-05-04T06:26:33.145Z,33.01
2023-05-04T06:29:09.480Z,32.76
2023-05-04T06:31:52.918Z,32.41
2023-05-04T06:34:22.835Z,32.26
2023-05-04T06:36:56.615Z,31.71
2023-05-04T06:39:29.043Z,30.72
2023-05-04T06:42:01.636Z,30.75
2023-05-04T06:44:40.800Z,29.98
2023-05-04T06:47:18.698Z,29.55
2023-05-04T06:50:20.375Z,29.35
2023-05-04T06:53:13.147Z,29.13
2023-05-04T06:55:51.039Z,28.86
2023-05-04T06:58:23.639Z,28.59
2023-05-04T07:00:53.647Z,27.76
2023-05-04T07:03:32.420Z,27.95
2023-05-04T07:06:10.072Z,27.56
2023-05-04T07:08:42.452Z,27.08
2023-05-04T07:11:12.335Z,26.30
2023-05-04T07:13:45.468Z,26.60
2023-05-04T07:16:23.411Z,26.03
2023-05-04T07:19:03.180Z,25.62
2023-05-04T07:21:42.475Z,24.88
2023-05-04T07:24:16.433Z,24.15
2023-05-04T07:26:48.193Z,23.79
2023-05-04T07:29:27.005Z,23.18
2023-05-04T07:32:12.088Z,23.00
2023-05-04T07:34:47.642Z,23.23
2023-05-04T07:37:28.011Z,22.86
2023-05-04T07:40:14.394Z,22.30
2023-05-04T07:42:57.348Z,22.09
2023-05-04T07:45:38.842Z,21.84
2023-05-04T07:48:30.879Z,21.09
2023-05-04T07:51:31.848Z,21.61
2023-05-04T07:54:26.438Z,21.84
2023-05-04T07:57:17.513Z,21.54
2023-05-04T07:59:59.252Z,21.96
2023-05-04T08:03:02.012Z,22.10
2023-05-04T08:09:01.509Z,21.40
2023-05-04T08:15:02.597Z,21.49
2023-05-04T08:18:12.973Z,21.83
2023-05-04T08:23:56.112Z,20.95
2023-05-04T08:27:07.021Z,20.86
2023-05-04T08:29:49.560Z,20.56
2023-05-04T08:32:48.534Z,20.58
2023-05-04T08:35:32.254Z,20.66
2023-05-04T08:38:07.708Z,21.22
2023-05-04T08:40:56.546Z,20.69
2023-05-04T08:43:48.355Z,19.82
2023-05-04T08:46:34.094Z,20.51
2023-05-04T08:49:12.238Z,21.06
2023-05-04T08:51:59.308Z,20.50
2023-05-04T08:54:36.075Z,20.13
2023-05-04T08:57:16.538Z,19.55
2023-05-04T08:59:59.955Z,19.86
2023-05-04T09:02:54.764Z,20.22
2023-05-04T09:05:25.326Z,20.30
2023-05-04T09:08:01.375Z,19.76
2023-05-04T09:10:37.866Z,19.48
2023-05-04T09:13:49.174Z,19.73
2023-05-04T09:16:38.677Z,19.85
2023-05-04T09:19:24.247Z,19.92
2023-05-04T09:21:59.149Z,19.62
2023-05-04T09:24:46.877Z,19.46
2023-05-04T09:27:20.637Z,18.91
2023-05-04T09:30:17.946Z,18.64
2023-05-04T09:33:03.629Z,19.23
2023-05-04T09:35:48.575Z,18.82
2023-05-04T09:38:35.061Z,19.28
2023-05-04T09:41:37.099Z,19.71
2023-05-04T09:44:55.035Z,19.32
2023-05-04T09:48:41.057Z,19.02
2023-05-04T09:51:26.975Z,18.89
2023-05-04T09:54:12.154Z,19.23
2023-05-04T09:57:02.033Z,18.91
2023-05-04T10:00:14.016Z,18.69
2023-05-04T10:02:46.520Z,19.19
2023-05-04T10:05:48.379Z,19.60
2023-05-04T10:09:12.477Z,18.64
2023-05-04T10:11:50.880Z,18.81
2023-05-04T10:14:42.097Z,19.46
2023-05-04T10:17:48.444Z,19.70
2023-05-04T10:20:31.987Z,19.59
2023-05-04T10:23:55.551Z,19.58
2023-05-04T10:27:00.075Z,19.55
2023-05-04T10:29:35.841Z,19.28
2023-05-04T10:32:07.546Z,19.73
2023-05-04T10:34:44.578Z,20.44
2023-05-04T10:37:23.176Z,21.18
2023-05-04T10:40:17.233Z,21.41
2023-05-04T10:42:46.551Z,21.36
2023-05-04T10:45:24.321Z,20.76
2023-05-04T10:47:58.631Z,20.60
2023-05-04T10:50:31.487Z,20.65
2023-05-04T10:53:04.592Z,20.92
2023-05-04T10:56:10.744Z,21.24
2023-05-04T10:58:47.143Z,21.52
2023-05-04T11:01:24.264Z,21.73
2023-05-04T11:04:04.448Z,22.13
2023-05-04T11:06:42.898Z,22.22
2023-05-04T11:09:15.130Z,22.54
2023-05-04T11:11:58.195Z,22.73
2023-05-04T11:14:31.693Z,22.91
2023-05-04T11:17:19.576Z,23.47
2023-05-04T11:20:00.215Z,23.65
2023-05-04T11:22:32.803Z,23.78
2023-05-04T11:25:06.565Z,23.79
2023-05-04T11:28:14.337Z,24.06
2023-05-04T11:30:53.746Z,24.17
2023-05-04T11:33:31.153Z,23.87
2023-05-04T11:36:08.855Z,23.84
2023-05-04T11:38:46.966Z,24.07
2023-05-04T11:41:29.506Z,24.38
2023-05-04T11:44:12.867Z,24.73
2023-05-04T11:47:00.622Z,24.93
2023-05-04T11:49:42.377Z,24.87
2023-05-04T11:52:16.862Z,25.19
2023-05-04T11:55:08.728Z,25.61
2023-05-04T11:58:21.788Z,25.52
2023-05-04T12:01:03.136Z,25.44
2023-05-04T12:03:52.021Z,25.31
2023-05-04T12:07:08.130Z,25.62
2023-05-04T12:09:59.403Z,25.82
2023-05-04T12:12:52.630Z,25.33
2023-05-04T12:15:46.232Z,25.27
2023-05-04T12:18:34.022Z,25.59
2023-05-04T12:21:28.852Z,25.52
2023-05-04T12:24:26.407Z,25.50
2023-05-04T12:26:57.680Z,25.67
2023-05-04T12:30:29.908Z,25.60
2023-05-04T12:33:25.867Z,25.37
2023-05-04T12:36:13.522Z,25.44
2023-05-04T12:38:52.931Z,25.63
2023-05-04T12:41:35.922Z,25.61
2023-05-04T12:44:29.662Z,25.53
2023-05-04T12:47:17.573Z,25.07
2023-05-04T12:50:11.063Z,25.08
2023-05-04T12:52:48.786Z,25.43
2023-05-04T12:55:39.753Z,25.53
2023-05-04T12:58:32.319Z,25.66
2023-05-04T13:01:06.192Z,25.92
2023-05-04T13:03:38.301Z,25.92
2023-05-04T13:06:14.283Z,25.47
2023-05-04T13:09:01.465Z,24.84
2023-05-04T13:11:53.232Z,24.74
2023-05-04T13:14:50.868Z,24.83
2023-05-04T13:17:33.750Z,25.25
2023-05-04T13:20:32.598Z,25.48
2023-05-04T13:23:20.519Z,25.73
2023-05-04T13:25:56.146Z,25.51
2023-05-04T13:28:39.273Z,25.40
2023-05-04T13:31:53.453Z,25.63
2023-05-04T13:34:34.963Z,25.49
2023-05-04T13:37:28.011Z,25.20
2023-05-04T13:40:15.428Z,25.20
2023-05-04T13:43:21.738Z,25.34
2023-05-04T13:46:31.623Z,25.34
2023-05-04T13:49:12.783Z,25.45
2023-05-04T13:51:55.005Z,25.31
2023-05-04T13:54:52.043Z,25.57
2023-05-04T13:57:42.141Z,25.64
2023-05-04T14:00:54.053Z,25.68
2023-05-04T14:03:31.047Z,25.46
2023-05-04T14:06:08.348Z,25.25
2023-05-04T14:09:38.105Z,25.32
2023-05-04T14:12:20.063Z,25.21
2023-05-04T14:15:08.414Z,25.15
2023-05-04T14:18:27.706Z,24.97
2023-05-04T14:21:59.812Z,24.89
2023-05-04T14:28:33.622Z,24.93
2023-05-04T14:31:43.355Z,25.21
2023-05-04T14:34:23.123Z,25.23
2023-05-04T14:37:02.900Z,25.11
2023-05-04T14:42:50.093Z,24.92
2023-05-04T14:45:28.372Z,24.76
2023-05-04T14:48:35.392Z,24.57
2023-05-04T14:51:23.276Z,24.56
2023-05-04T14:54:19.114Z,24.68
2023-05-04T14:57:21.356Z,24.65
2023-05-04T15:00:00.471Z,24.56
2023-05-04T15:02:42.223Z,24.57
2023-05-04T15:05:20.819Z,24.71
2023-05-04T15:08:15.537Z,24.65
2023-05-04T15:10:59.722Z,24.28
2023-05-04T15:14:00.418Z,24.13
2023-05-04T15:16:44.438Z,23.97
2023-05-04T15:19:21.301Z,24.01
2023-05-04T15:22:02.854Z,24.06
2023-05-04T15:25:30.070Z,24.07
2023-05-04T15:29:25.603Z,23.84
2023-05-04T15:32:13.338Z,23.77
2023-05-04T15:35:28.750Z,23.98
2023-05-04T15:47:27.902Z,23.69
2023-05-04T15:49:56.972Z,23.97
2023-05-04T15:52:24.919Z,23.93
2023-05-04T15:54:54.198Z,23.95
2023-05-04T15:57:22.538Z,24.17
2023-05-04T15:59:50.815Z,23.89
2023-05-04T16:02:19.349Z,23.80
2023-05-04T16:04:47.520Z,23.88
2023-05-04T16:07:21.094Z,23.71
2023-05-04T16:09:49.421Z,23.84
2023-05-04T16:12:21.033Z,23.79
2023-05-04T16:14:50.578Z,23.58
2023-05-04T16:17:18.577Z,23.54
2023-05-04T16:19:46.612Z,23.70
2023-05-04T16:22:15.045Z,23.67
2023-05-04T16:24:44.035Z,23.56
2023-05-04T16:27:12.645Z,23.41
2023-05-04T16:29:41.522Z,23.50
2023-05-04T16:32:10.059Z,23.55
2023-05-04T16:34:40.517Z,23.53
2023-05-04T16:37:10.822Z,23.43
2023-05-04T16:39:39.753Z,23.64
2023-05-04T16:42:10.882Z,23.75
2023-05-04T16:44:42.712Z,23.63
2023-05-04T16:47:14.601Z,23.73
2023-05-04T16:49:52.851Z,23.65
2023-05-04T16:52:25.099Z,23.71
2023-05-04T16:55:04.007Z,23.77
2023-05-04T16:57:59.601Z,23.73
2023-05-04T17:01:14.682Z,23.68
2023-05-04T17:04:05.579Z,23.72
2023-05-04T17:08:00.087Z,23.94
2023-05-04T17:10:32.730Z,23.89
2023-05-04T17:19:04.380Z,24.05
2023-05-04T17:21:59.017Z,24.07
2023-05-04T17:24:36.853Z,24.31
2023-05-04T17:27:05.963Z,24.28
2023-05-04T17:29:43.803Z,24.33
2023-05-04T17:32:28.580Z,24.27
2023-05-04T17:35:24.576Z,24.42
2023-05-04T17:38:18.135Z,24.59
2023-05-04T17:41:23.081Z,24.50
2023-05-04T17:44:02.574Z,24.59
2023-05-04T17:46:38.946Z,24.68
2023-05-04T17:49:13.055Z,24.85
2023-05-04T17:55:03.004Z,25.14
2023-05-04T17:57:37.909Z,25.44
2023-05-04T18:00:11.308Z,25.53
2023-05-04T18:02:46.643Z,25.76
2023-05-04T18:05:24.998Z,25.95
2023-05-04T18:08:10.395Z,26.07
2023-05-04T18:10:54.532Z,26.23
2023-05-04T18:14:28.703Z,26.50
2023-05-04T18:17:32.922Z,26.62
2023-05-04T18:20:13.892Z,26.83
2023-05-04T18:23:31.174Z,26.89
2023-05-04T18:26:54.665Z,27.06
2023-05-04T18:29:52.656Z,27.25
2023-05-04T18:33:00.199Z,27.50
2023-05-04T18:35:36.568Z,27.74
2023-05-04T18:38:26.454Z,27.94
2023-05-04T18:41:07.361Z,28.09
2023-05-04T18:44:04.055Z,28.56
2023-05-04T18:47:06.432Z,28.67
2023-05-04T18:50:00.768Z,28.88
2023-05-04T18:53:08.374Z,29.23
2023-05-04T18:56:29.882Z,29.41
2023-05-04T18:59:27.711Z,29.67
2023-05-04T19:02:40.717Z,29.73
2023-05-04T19:05:40.638Z,30.11
2023-05-04T19:08:40.346Z,30.13
2023-05-04T19:11:26.994Z,30.37
2023-05-04T19:14:20.449Z,30.54
2023-05-04T19:17:01.660Z,30.75
2023-05-04T19:20:31.353Z,31.09
2023-05-04T19:23:58.936Z,31.15
2023-05-04T19:26:44.852Z,31.31
2023-05-04T19:29:37.838Z,31.38
2023-05-04T19:32:40.887Z,31.47
2023-05-04T19:35:51.124Z,31.74
2023-05-04T19:39:02.362Z,31.72
2023-05-04T19:42:01.154Z,32.10
2023-05-04T19:45:10.889Z,32.23
2023-05-04T19:48:17.418Z,32.20
2023-05-04T19:51:28.694Z,32.37
2023-05-04T19:54:16.475Z,32.51
2023-05-04T19:57:03.470Z,32.70
2023-05-04T19:59:57.533Z,32.76
2023-05-04T20:02:57.160Z,33.00
2023-05-04T20:06:01.297Z,32.98
2023-05-04T20:09:21.092Z,33.16
2023-05-04T20:12:23.491Z,33.37
2023-05-04T20:15:06.539Z,33.44
2023-05-04T20:18:06.969Z,33.70
2023-05-04T20:21:16.794Z,33.81
2023-05-04T20:23:51.745Z,33.98
2023-05-04T20:26:33.594Z,34.11
2023-05-04T20:29:13.218Z,34.32
2023-05-04T20:32:05.917Z,34.58
2023-05-04T20:34:54.733Z,34.77
2023-05-04T20:37:41.965Z,35.06
2023-05-04T20:40:41.895Z,35.21
2023-05-04T20:43:26.174Z,35.34
2023-05-04T20:46:10.919Z,35.39
2023-05-04T20:49:07.586Z,35.79
2023-05-04T20:52:09.082Z,36.00
2023-05-04T20:54:58.344Z,36.02
2023-05-04T20:57:37.468Z,36.06
2023-05-04T21:00:34.609Z,35.96
2023-05-04T21:03:23.488Z,36.23
2023-05-04T21:06:12.975Z,36.47
2023-05-04T21:08:52.757Z,36.54
2023-05-04T21:11:21.543Z,36.58
2023-05-04T21:13:56.170Z,36.51
2023-05-04T21:16:46.396Z,36.54
2023-05-04T21:19:33.883Z,36.78
2023-05-04T21:22:13.435Z,36.92
2023-05-04T21:24:51.524Z,36.96
2023-05-04T21:27:35.683Z,37.08
2023-05-04T21:30:09.942Z,36.91
2023-05-04T21:32:42.510Z,37.22
2023-05-04T21:35:16.145Z,37.42
2023-05-04T21:37:46.309Z,37.35
2023-05-04T21:40:17.333Z,37.47
2023-05-04T21:42:49.476Z,37.48
2023-05-04T21:45:23.182Z,37.53
2023-05-04T21:47:52.749Z,37.70
2023-05-04T21:50:23.922Z,37.84
2023-05-04T21:52:53.006Z,37.88
2023-05-04T21:55:22.008Z,37.89
2023-05-04T21:57:53.435Z,37.98
2023-05-04T22:00:25.142Z,38.16
2023-05-04T22:02:54.868Z,38.17
2023-05-04T22:05:26.548Z,38.48
2023-05-04T22:07:59.770Z,38.54
2023-05-04T22:10:36.602Z,38.33
2023-05-04T22:13:13.254Z,38.54
2023-05-04T22:15:49.993Z,38.67
2023-05-04T22:18:23.471Z,38.78
2023-05-04T22:21:04.076Z,38.76
2023-05-04T22:23:38.073Z,38.84
2023-05-04T22:26:07.421Z,38.81
2023-05-04T22:28:36.074Z,38.91
2023-05-04T22:31:07.034Z,39.07
2023-05-04T22:33:35.814Z,39.02
2023-05-04T22:36:12.453Z,39.22
2023-05-04T22:38:43.610Z,39.27
2023-05-04T22:41:16.051Z,39.47
2023-05-04T22:43:47.460Z,39.49
2023-05-04T22:46:18.981Z,39.60
2023-05-04T22:48:47.633Z,39.62
2023-05-04T22:51:16.718Z,39.63
2023-05-04T22:53:45.908Z,39.86
2023-05-04T22:56:16.971Z,39.96
2023-05-04T22:58:46.307Z,40.11
2023-05-04T23:01:18.292Z,40.12
2023-05-04T23:03:48.363Z,40.20
2023-05-04T23:06:17.794Z,40.28
2023-05-04T23:08:46.928Z,40.32
2023-05-04T23:11:34.232Z,40.22
2023-05-04T23:14:05.610Z,40.33
2023-05-04T23:16:38.091Z,40.33
2023-05-04T23:19:09.506Z,40.36
2023-05-04T23:21:43.060Z,40.49
2023-05-04T23:24:15.493Z,40.78
2023-05-04T23:26:44.662Z,40.80
2023-05-04T23:29:16.635Z,40.99
2023-05-04T23:31:48.979Z,41.19
2023-05-04T23:34:17.620Z,41.13
2023-05-04T23:36:46.546Z,41.13
2023-05-04T23:39:16.395Z,41.40
2023-05-04T23:41:45.105Z,41.44
2023-05-04T23:44:16.407Z,41.58
2023-05-04T23:46:50.680Z,41.56
2023-05-04T23:49:19.718Z,41.57
2023-05-04T23:51:48.658Z,41.50
2023-05-04T23:54:19.427Z,41.57
2023-05-04T23:56:48.574Z,41.45
2023-05-04T23:59:23.430Z,41.47
